sensor_id;sensor_type;location;lat;lon;timestamp;pressure;altitude;pressure_sealevel;temperature;humidity
49377;BME280;35253;34.688;33.040;2023-06-01T00:01:37;100797.09;;;23.15;100.00
49377;BME280;35253;34.688;33.040;2023-06-01T00:04:03;100818.34;;;23.12;100.00
49377;BME280;35253;34.688;33.040;2023-06-01T00:06:29;100826.16;;;23.07;100.00
49377;BME280;35253;34.688;33.040;2023-06-01T00:08:58;100825.09;;;23.00;100.00
49377;BME280;35253;34.688;33.040;2023-06-01T00:11:25;100816.28;;;22.98;100.00
49377;BME280;35253;34.688;33.040;2023-06-01T00:13:51;100807.78;;;22.92;100.00
49377;BME280;35253;34.688;33.040;2023-06-01T00:16:18;100798.41;;;22.87;100.00
49377;BME280;35253;34.688;33.040;2023-06-01T00:18:44;100794.53;;;22.98;100.00
49377;BME280;35253;34.688;33.040;2023-06-01T00:21:10;100797.75;;;22.93;100.00
49377;BME280;35253;34.688;33.040;2023-06-01T00:23:35;100809.13;;;22.97;100.00
49377;BME280;35253;34.688;33.040;2023-06-01T00:26:02;100821.03;;;22.96;100.00
49377;BME280;35253;34.688;33.040;2023-06-01T00:28:28;100823.06;;;22.94;100.00
49377;BME280;35253;34.688;33.040;2023-06-01T00:30:54;100821.88;;;22.96;100.00
49377;BME280;35253;34.688;33.040;2023-06-01T00:33:20;100816.63;;;22.95;100.00
49377;BME280;35253;34.688;33.040;2023-06-01T00:35:46;100813.91;;;22.95;100.00
49377;BME280;35253;34.688;33.040;2023-06-01T00:38:12;100807.78;;;22.92;100.00
49377;BME280;35253;34.688;33.040;2023-06-01T00:40:38;100805.75;;;22.95;100.00
49377;BME280;35253;34.688;33.040;2023-06-01T00:43:03;100811.00;;;22.96;100.00
49377;BME280;35253;34.688;33.040;2023-06-01T00:45:30;100802.84;;;22.96;100.00
49377;BME280;35253;34.688;33.040;2023-06-01T00:47:56;100794.16;;;22.84;100.00
49377;BME280;35253;34.688;33.040;2023-06-01T00:50:22;100785.31;;;22.82;100.00
49377;BME280;35253;34.688;33.040;2023-06-01T00:52:51;100783.63;;;22.81;100.00
49377;BME280;35253;34.688;33.040;2023-06-01T00:55:19;100777.16;;;22.90;100.00
49377;BME280;35253;34.688;33.040;2023-06-01T00:57:46;100777.50;;;22.96;100.00
49377;BME280;35253;34.688;33.040;2023-06-01T01:00:12;100779.38;;;22.87;100.00
49377;BME280;35253;34.688;33.040;2023-06-01T01:02:42;100786.66;;;22.86;100.00
49377;BME280;35253;34.688;33.040;2023-06-01T01:05:10;100778.88;;;22.83;100.00
49377;BME280;35253;34.688;33.040;2023-06-01T01:13:37;100779.72;;;22.84;100.00
49377;BME280;35253;34.688;33.040;2023-06-01T01:21:36;100798.88;;;22.74;100.00
49377;BME280;35253;34.688;33.040;2023-06-01T01:29:23;100811.81;;;22.72;100.00
49377;BME280;35253;34.688;33.040;2023-06-01T01:31:52;100812.41;;;22.58;100.00
49377;BME280;35253;34.688;33.040;2023-06-01T01:34:20;100821.06;;;22.62;100.00
49377;BME280;35253;34.688;33.040;2023-06-01T01:36:46;100832.09;;;22.60;100.00
49377;BME280;35253;34.688;33.040;2023-06-01T01:39:12;100826.50;;;22.62;100.00
49377;BME280;35253;34.688;33.040;2023-06-01T01:41:38;100821.44;;;22.67;100.00
49377;BME280;35253;34.688;33.040;2023-06-01T01:44:04;100823.84;;;22.70;100.00
49377;BME280;35253;34.688;33.040;2023-06-01T01:46:39;100836.03;;;22.66;100.00
49377;BME280;35253;34.688;33.040;2023-06-01T01:49:13;100838.25;;;22.62;100.00
49377;BME280;35253;34.688;33.040;2023-06-01T01:51:44;100835.16;;;22.57;100.00
49377;BME280;35253;34.688;33.040;2023-06-01T01:54:13;100831.78;;;22.55;100.00
49377;BME280;35253;34.688;33.040;2023-06-01T01:56:39;100826.66;;;22.60;100.00
49377;BME280;35253;34.688;33.040;2023-06-01T01:59:05;100827.38;;;22.62;100.00
49377;BME280;35253;34.688;33.040;2023-06-01T02:01:32;100826.50;;;22.62;100.00
49377;BME280;35253;34.688;33.040;2023-06-01T02:04:02;100821.94;;;22.62;100.00
49377;BME280;35253;34.688;33.040;2023-06-01T02:06:29;100829.28;;;22.70;100.00
49377;BME280;35253;34.688;33.040;2023-06-01T02:08:56;100834.81;;;22.60;100.00
49377;BME280;35253;34.688;33.040;2023-06-01T02:11:21;100831.44;;;22.58;100.00
49377;BME280;35253;34.688;33.040;2023-06-01T02:13:47;100849.34;;;22.43;100.00
49377;BME280;35253;34.688;33.040;2023-06-01T02:16:13;100855.66;;;22.43;100.00
49377;BME280;35253;34.688;33.040;2023-06-01T02:18:43;100864.28;;;22.39;100.00
49377;BME280;35253;34.688;33.040;2023-06-01T02:21:13;100854.53;;;22.20;100.00
49377;BME280;35253;34.688;33.040;2023-06-01T02:23:39;100857.91;;;22.22;100.00
49377;BME280;35253;34.688;33.040;2023-06-01T02:26:06;100858.03;;;22.13;100.00
49377;BME280;35253;34.688;33.040;2023-06-01T02:28:32;100861.75;;;22.12;100.00
49377;BME280;35253;34.688;33.040;2023-06-01T02:30:57;100853.56;;;22.03;100.00
49377;BME280;35253;34.688;33.040;2023-06-01T02:33:23;100846.59;;;22.01;100.00
49377;BME280;35253;34.688;33.040;2023-06-01T02:35:52;100842.88;;;22.02;100.00
49377;BME280;35253;34.688;33.040;2023-06-01T02:38:17;100847.81;;;22.07;100.00
49377;BME280;35253;34.688;33.040;2023-06-01T02:40:43;100847.16;;;22.13;100.00
49377;BME280;35253;34.688;33.040;2023-06-01T02:43:09;100854.53;;;22.20;100.00
49377;BME280;35253;34.688;33.040;2023-06-01T02:45:34;100865.06;;;22.23;100.00
49377;BME280;35253;34.688;33.040;2023-06-01T02:48:00;100862.38;;;22.31;100.00
49377;BME280;35253;34.688;33.040;2023-06-01T02:50:26;100858.84;;;22.39;100.00
49377;BME280;35253;34.688;33.040;2023-06-01T02:52:51;100847.97;;;22.39;100.00
49377;BME280;35253;34.688;33.040;2023-06-01T02:55:17;100840.34;;;22.42;100.00
49377;BME280;35253;34.688;33.040;2023-06-01T02:57:43;100859.91;;;22.46;100.00
49377;BME280;35253;34.688;33.040;2023-06-01T03:00:09;100866.50;;;22.43;100.00
49377;BME280;35253;34.688;33.040;2023-06-01T03:02:45;100869.06;;;22.45;100.00
49377;BME280;35253;34.688;33.040;2023-06-01T03:05:11;100855.34;;;22.46;100.00
49377;BME280;35253;34.688;33.040;2023-06-01T03:07:41;100860.59;;;22.48;100.00
49377;BME280;35253;34.688;33.040;2023-06-01T03:10:07;100863.16;;;22.50;100.00
49377;BME280;35253;34.688;33.040;2023-06-01T03:12:33;100856.38;;;22.54;100.00
49377;BME280;35253;34.688;33.040;2023-06-01T03:14:59;100861.81;;;22.54;100.00
49377;BME280;35253;34.688;33.040;2023-06-01T03:17:25;100867.94;;;22.22;100.00
49377;BME280;35253;34.688;33.040;2023-06-01T03:19:51;100877.75;;;22.15;100.00
49377;BME280;35253;34.688;33.040;2023-06-01T03:22:17;100882.84;;;22.18;100.00
49377;BME280;35253;34.688;33.040;2023-06-01T03:24:43;100873.75;;;22.01;100.00
49377;BME280;35253;34.688;33.040;2023-06-01T03:27:10;100871.00;;;22.27;100.00
49377;BME280;35253;34.688;33.040;2023-06-01T03:29:38;100871.66;;;22.46;100.00
49377;BME280;35253;34.688;33.040;2023-06-01T03:32:04;100878.28;;;22.52;100.00
49377;BME280;35253;34.688;33.040;2023-06-01T03:34:30;100887.00;;;22.64;100.00
49377;BME280;35253;34.688;33.040;2023-06-01T03:36:58;100887.50;;;22.59;100.00
49377;BME280;35253;34.688;33.040;2023-06-01T03:39:24;100910.28;;;22.66;100.00
49377;BME280;35253;34.688;33.040;2023-06-01T03:41:49;100899.41;;;22.66;100.00
49377;BME280;35253;34.688;33.040;2023-06-01T03:44:15;100898.38;;;22.59;100.00
49377;BME280;35253;34.688;33.040;2023-06-01T03:46:41;100903.63;;;22.61;100.00
49377;BME280;35253;34.688;33.040;2023-06-01T03:49:06;100906.84;;;22.64;100.00
49377;BME280;35253;34.688;33.040;2023-06-01T03:51:32;100897.31;;;22.60;100.00
49377;BME280;35253;34.688;33.040;2023-06-01T03:53:58;100898.13;;;22.78;100.00
49377;BME280;35253;34.688;33.040;2023-06-01T03:56:24;100890.03;;;22.95;100.00
49377;BME280;35253;34.688;33.040;2023-06-01T03:58:49;100884.28;;;23.06;100.00
49377;BME280;35253;34.688;33.040;2023-06-01T04:01:15;100889.94;;;23.20;100.00
49377;BME280;35253;34.688;33.040;2023-06-01T04:03:46;100890.31;;;23.33;100.00
49377;BME280;35253;34.688;33.040;2023-06-01T04:06:14;100887.75;;;23.40;100.00
49377;BME280;35253;34.688;33.040;2023-06-01T04:08:43;100888.63;;;23.49;100.00
49377;BME280;35253;34.688;33.040;2023-06-01T04:11:17;100883.31;;;23.39;100.00
49377;BME280;35253;34.688;33.040;2023-06-01T04:13:45;100890.69;;;23.55;100.00
49377;BME280;35253;34.688;33.040;2023-06-01T04:16:11;100902.09;;;23.58;100.00
49377;BME280;35253;34.688;33.040;2023-06-01T04:18:37;100917.91;;;23.71;100.00
49377;BME280;35253;34.688;33.040;2023-06-01T04:21:03;100913.66;;;23.85;100.00
49377;BME280;35253;34.688;33.040;2023-06-01T04:23:29;100918.09;;;23.94;100.00
49377;BME280;35253;34.688;33.040;2023-06-01T04:25:56;100921.84;;;24.09;100.00
49377;BME280;35253;34.688;33.040;2023-06-01T04:28:25;100938.00;;;24.10;100.00
49377;BME280;35253;34.688;33.040;2023-06-01T04:30:52;100937.16;;;24.18;100.00
49377;BME280;35253;34.688;33.040;2023-06-01T04:33:18;100936.63;;;24.14;100.00
49377;BME280;35253;34.688;33.040;2023-06-01T04:35:43;100936.63;;;24.22;100.00
49377;BME280;35253;34.688;33.040;2023-06-01T04:38:10;100933.09;;;24.22;100.00
49377;BME280;35253;34.688;33.040;2023-06-01T04:40:35;100931.69;;;24.18;100.00
49377;BME280;35253;34.688;33.040;2023-06-01T04:43:02;100936.13;;;24.11;100.00
49377;BME280;35253;34.688;33.040;2023-06-01T04:45:29;100940.91;;;24.25;100.00
49377;BME280;35253;34.688;33.040;2023-06-01T04:47:59;100946.38;;;24.17;100.00
49377;BME280;35253;34.688;33.040;2023-06-01T04:50:25;100944.81;;;24.22;100.00
49377;BME280;35253;34.688;33.040;2023-06-01T04:52:54;100937.16;;;24.34;100.00
49377;BME280;35253;34.688;33.040;2023-06-01T04:55:20;100939.69;;;24.36;100.00
49377;BME280;35253;34.688;33.040;2023-06-01T04:57:46;100926.38;;;24.41;100.00
49377;BME280;35253;34.688;33.040;2023-06-01T05:00:14;100930.13;;;24.40;100.00
49377;BME280;35253;34.688;33.040;2023-06-01T05:02:43;100955.34;;;24.42;100.00
49377;BME280;35253;34.688;33.040;2023-06-01T05:05:10;100962.50;;;24.43;100.00
49377;BME280;35253;34.688;33.040;2023-06-01T05:07:40;100962.63;;;24.57;100.00
49377;BME280;35253;34.688;33.040;2023-06-01T05:10:09;100973.56;;;24.49;100.00
49377;BME280;35253;34.688;33.040;2023-06-01T05:12:36;100967.78;;;24.52;100.00
49377;BME280;35253;34.688;33.040;2023-06-01T05:15:04;100971.56;;;24.35;100.00
49377;BME280;35253;34.688;33.040;2023-06-01T05:17:30;100968.50;;;24.22;100.00
49377;BME280;35253;34.688;33.040;2023-06-01T05:19:55;100971.22;;;24.38;100.00
49377;BME280;35253;34.688;33.040;2023-06-01T05:22:23;100969.81;;;24.50;100.00
49377;BME280;35253;34.688;33.040;2023-06-01T05:24:49;100966.78;;;24.29;100.00
49377;BME280;35253;34.688;33.040;2023-06-01T05:27:15;100971.34;;;24.45;100.00
49377;BME280;35253;34.688;33.040;2023-06-01T05:29:41;100981.38;;;24.60;100.00
49377;BME280;35253;34.688;33.040;2023-06-01T05:32:08;100987.47;;;24.70;100.00
49377;BME280;35253;34.688;33.040;2023-06-01T05:34:33;100983.38;;;24.91;100.00
49377;BME280;35253;34.688;33.040;2023-06-01T05:37:01;100991.03;;;24.95;100.00
49377;BME280;35253;34.688;33.040;2023-06-01T05:39:27;100993.28;;;24.67;100.00
49377;BME280;35253;34.688;33.040;2023-06-01T05:41:57;100990.53;;;24.76;100.00
49377;BME280;35253;34.688;33.040;2023-06-01T05:44:23;100986.75;;;24.93;100.00
49377;BME280;35253;34.688;33.040;2023-06-01T05:46:50;100970.03;;;25.04;100.00
49377;BME280;35253;34.688;33.040;2023-06-01T05:49:18;100971.50;;;25.14;100.00
49377;BME280;35253;34.688;33.040;2023-06-01T05:51:44;100971.38;;;25.08;100.00
49377;BME280;35253;34.688;33.040;2023-06-01T05:54:12;100975.06;;;25.15;100.00
49377;BME280;35253;34.688;33.040;2023-06-01T05:56:37;100969.56;;;25.23;100.00
49377;BME280;35253;34.688;33.040;2023-06-01T05:59:03;100968.75;;;25.14;100.00
49377;BME280;35253;34.688;33.040;2023-06-01T06:01:29;100953.50;;;25.28;100.00
49377;BME280;35253;34.688;33.040;2023-06-01T06:03:55;100963.03;;;25.32;100.00
49377;BME280;35253;34.688;33.040;2023-06-01T06:06:21;100978.03;;;25.36;100.00
49377;BME280;35253;34.688;33.040;2023-06-01T06:08:48;100981.06;;;25.41;100.00
49377;BME280;35253;34.688;33.040;2023-06-01T06:11:14;100983.16;;;25.39;100.00
49377;BME280;35253;34.688;33.040;2023-06-01T06:13:40;100974.22;;;25.45;100.00
49377;BME280;35253;34.688;33.040;2023-06-01T06:16:05;100977.47;;;25.49;100.00
49377;BME280;35253;34.688;33.040;2023-06-01T06:18:31;100987.34;;;25.58;100.00
49377;BME280;35253;34.688;33.040;2023-06-01T06:20:57;100973.63;;;25.66;100.00
49377;BME280;35253;34.688;33.040;2023-06-01T06:23:22;100963.56;;;25.67;100.00
49377;BME280;35253;34.688;33.040;2023-06-01T06:25:48;100949.00;;;25.74;100.00
49377;BME280;35253;34.688;33.040;2023-06-01T06:28:15;100949.94;;;25.81;100.00
49377;BME280;35253;34.688;33.040;2023-06-01T06:30:41;100955.00;;;25.92;100.00
49377;BME280;35253;34.688;33.040;2023-06-01T06:33:06;100962.72;;;25.89;100.00
49377;BME280;35253;34.688;33.040;2023-06-01T06:35:32;100974.44;;;25.97;100.00
49377;BME280;35253;34.688;33.040;2023-06-01T06:37:58;100973.13;;;25.85;100.00
49377;BME280;35253;34.688;33.040;2023-06-01T06:40:24;100967.31;;;25.88;100.00
49377;BME280;35253;34.688;33.040;2023-06-01T06:42:49;100965.72;;;25.94;100.00
49377;BME280;35253;34.688;33.040;2023-06-01T06:45:16;100965.47;;;25.81;100.00
49377;BME280;35253;34.688;33.040;2023-06-01T06:47:42;100979.34;;;26.02;100.00
49377;BME280;35253;34.688;33.040;2023-06-01T06:50:12;100972.53;;;26.21;100.00
49377;BME280;35253;34.688;33.040;2023-06-01T06:52:38;100965.53;;;26.18;100.00
49377;BME280;35253;34.688;33.040;2023-06-01T06:55:04;100968.13;;;26.34;100.00
49377;BME280;35253;34.688;33.040;2023-06-01T06:57:30;100965.69;;;26.39;100.00
49377;BME280;35253;34.688;33.040;2023-06-01T06:59:56;100952.97;;;26.46;100.00
49377;BME280;35253;34.688;33.040;2023-06-01T07:02:22;100948.94;;;26.57;100.00
49377;BME280;35253;34.688;33.040;2023-06-01T07:04:48;100946.22;;;26.72;100.00
49377;BME280;35253;34.688;33.040;2023-06-01T07:07:14;100934.50;;;26.78;100.00
49377;BME280;35253;34.688;33.040;2023-06-01T07:09:40;100935.47;;;26.85;100.00
49377;BME280;35253;34.688;33.040;2023-06-01T07:12:06;100929.13;;;26.84;100.00
49377;BME280;35253;34.688;33.040;2023-06-01T07:14:32;100938.38;;;26.98;100.00
49377;BME280;35253;34.688;33.040;2023-06-01T07:16:58;100940.91;;;27.00;100.00
49377;BME280;35253;34.688;33.040;2023-06-01T07:19:24;100951.00;;;26.99;100.00
49377;BME280;35253;34.688;33.040;2023-06-01T07:21:49;100957.78;;;27.03;100.00
49377;BME280;35253;34.688;33.040;2023-06-01T07:24:18;100957.22;;;27.08;100.00
49377;BME280;35253;34.688;33.040;2023-06-01T07:26:46;100955.44;;;27.00;100.00
49377;BME280;35253;34.688;33.040;2023-06-01T07:29:12;100940.25;;;26.83;100.00
49377;BME280;35253;34.688;33.040;2023-06-01T07:31:39;100948.03;;;26.94;100.00
49377;BME280;35253;34.688;33.040;2023-06-01T07:34:05;100951.31;;;26.89;100.00
49377;BME280;35253;34.688;33.040;2023-06-01T07:36:30;100946.69;;;26.90;100.00
49377;BME280;35253;34.688;33.040;2023-06-01T07:39:00;100943.75;;;26.10;100.00
49377;BME280;35253;34.688;33.040;2023-06-01T07:41:26;100940.63;;;26.65;100.00
49377;BME280;35253;34.688;33.040;2023-06-01T07:43:53;100943.47;;;26.72;100.00
49377;BME280;35253;34.688;33.040;2023-06-01T07:46:18;100936.97;;;26.87;100.00
49377;BME280;35253;34.688;33.040;2023-06-01T07:48:44;100949.34;;;26.98;100.00
49377;BME280;35253;34.688;33.040;2023-06-01T07:51:10;100953.56;;;26.86;100.00
49377;BME280;35253;34.688;33.040;2023-06-01T07:53:35;100941.28;;;26.82;100.00
49377;BME280;35253;34.688;33.040;2023-06-01T07:56:01;100949.59;;;26.74;100.00
49377;BME280;35253;34.688;33.040;2023-06-01T07:58:27;100946.66;;;26.61;100.00
49377;BME280;35253;34.688;33.040;2023-06-01T08:00:53;100952.03;;;26.69;100.00
49377;BME280;35253;34.688;33.040;2023-06-01T08:03:19;100960.13;;;26.77;100.00
49377;BME280;35253;34.688;33.040;2023-06-01T08:05:46;100956.38;;;26.78;100.00
49377;BME280;35253;34.688;33.040;2023-06-01T08:08:12;100952.44;;;26.95;100.00
49377;BME280;35253;34.688;33.040;2023-06-01T08:10:41;100955.63;;;26.99;100.00
49377;BME280;35253;34.688;33.040;2023-06-01T08:13:07;100956.47;;;26.99;100.00
49377;BME280;35253;34.688;33.040;2023-06-01T08:15:33;100968.38;;;27.06;100.00
49377;BME280;35253;34.688;33.040;2023-06-01T08:18:02;100968.16;;;27.22;100.00
49377;BME280;35253;34.688;33.040;2023-06-01T08:20:28;100961.25;;;27.26;100.00
49377;BME280;35253;34.688;33.040;2023-06-01T08:22:54;100958.56;;;26.97;100.00
49377;BME280;35253;34.688;33.040;2023-06-01T08:25:20;100954.75;;;27.27;100.00
49377;BME280;35253;34.688;33.040;2023-06-01T08:27:48;100971.34;;;27.55;100.00
49377;BME280;35253;34.688;33.040;2023-06-01T08:30:15;100976.59;;;27.57;100.00
49377;BME280;35253;34.688;33.040;2023-06-01T08:32:41;100977.75;;;27.48;100.00
49377;BME280;35253;34.688;33.040;2023-06-01T08:35:07;100977.75;;;27.48;100.00
49377;BME280;35253;34.688;33.040;2023-06-01T08:37:34;100978.63;;;27.33;100.00
49377;BME280;35253;34.688;33.040;2023-06-01T08:40:00;100977.41;;;27.21;100.00
49377;BME280;35253;34.688;33.040;2023-06-01T08:45:11;100983.38;;;26.96;100.00
49377;BME280;35253;34.688;33.040;2023-06-01T08:47:38;100982.75;;;26.94;100.00
49377;BME280;35253;34.688;33.040;2023-06-01T08:50:05;100988.91;;;26.73;100.00
49377;BME280;35253;34.688;33.040;2023-06-01T08:52:34;101002.75;;;26.94;100.00
49377;BME280;35253;34.688;33.040;2023-06-01T08:55:02;101009.41;;;25.01;100.00
49377;BME280;35253;34.688;33.040;2023-06-01T08:57:29;101018.34;;;25.65;100.00
49377;BME280;35253;34.688;33.040;2023-06-01T08:59:56;101019.63;;;25.77;100.00
49377;BME280;35253;34.688;33.040;2023-06-01T09:02:22;101016.63;;;25.95;100.00
49377;BME280;35253;34.688;33.040;2023-06-01T09:04:49;101005.16;;;26.22;100.00
49377;BME280;35253;34.688;33.040;2023-06-01T09:07:15;100989.91;;;26.42;100.00
49377;BME280;35253;34.688;33.040;2023-06-01T09:09:42;100998.34;;;26.56;100.00
49377;BME280;35253;34.688;33.040;2023-06-01T09:12:25;101007.81;;;26.68;100.00
49377;BME280;35253;34.688;33.040;2023-06-01T09:15:10;101008.16;;;26.65;100.00
49377;BME280;35253;34.688;33.040;2023-06-01T09:17:40;101008.59;;;26.91;100.00
49377;BME280;35253;34.688;33.040;2023-06-01T09:20:10;101005.38;;;26.87;100.00
49377;BME280;35253;34.688;33.040;2023-06-01T09:22:44;101007.16;;;26.95;100.00
49377;BME280;35253;34.688;33.040;2023-06-01T09:25:12;100987.72;;;27.05;100.00
49377;BME280;35253;34.688;33.040;2023-06-01T09:27:51;100987.81;;;27.11;100.00
49377;BME280;35253;34.688;33.040;2023-06-01T09:30:19;100992.69;;;27.30;100.00
49377;BME280;35253;34.688;33.040;2023-06-01T09:32:46;100982.56;;;27.46;100.00
49377;BME280;35253;34.688;33.040;2023-06-01T09:35:18;100986.34;;;27.30;100.00
49377;BME280;35253;34.688;33.040;2023-06-01T09:38:02;101007.84;;;27.62;100.00
49377;BME280;35253;34.688;33.040;2023-06-01T09:40:31;101016.88;;;27.12;100.00
49377;BME280;35253;34.688;33.040;2023-06-01T09:42:57;101020.81;;;26.66;100.00
49377;BME280;35253;34.688;33.040;2023-06-01T09:45:24;101013.97;;;27.28;100.00
49377;BME280;35253;34.688;33.040;2023-06-01T09:47:51;101022.88;;;27.66;100.00
49377;BME280;35253;34.688;33.040;2023-06-01T09:50:37;101025.00;;;27.86;100.00
49377;BME280;35253;34.688;33.040;2023-06-01T09:53:04;101009.03;;;28.10;100.00
49377;BME280;35253;34.688;33.040;2023-06-01T09:55:30;101003.34;;;28.12;100.00
49377;BME280;35253;34.688;33.040;2023-06-01T09:58:21;100996.28;;;28.24;100.00
49377;BME280;35253;34.688;33.040;2023-06-01T10:00:49;100987.56;;;28.42;100.00
49377;BME280;35253;34.688;33.040;2023-06-01T10:03:16;101001.78;;;28.24;100.00
49377;BME280;35253;34.688;33.040;2023-06-01T10:05:46;101021.09;;;27.95;100.00
49377;BME280;35253;34.688;33.040;2023-06-01T10:08:13;101026.94;;;27.92;100.00
49377;BME280;35253;34.688;33.040;2023-06-01T10:10:42;101031.91;;;28.45;100.00
49377;BME280;35253;34.688;33.040;2023-06-01T10:13:10;101027.09;;;28.75;100.00
49377;BME280;35253;34.688;33.040;2023-06-01T10:15:36;101025.19;;;27.84;100.00
49377;BME280;35253;34.688;33.040;2023-06-01T10:18:03;101015.44;;;27.31;100.00
49377;BME280;35253;34.688;33.040;2023-06-01T10:20:35;101022.44;;;27.84;100.00
49377;BME280;35253;34.688;33.040;2023-06-01T10:23:02;101007.81;;;27.98;100.00
49377;BME280;35253;34.688;33.040;2023-06-01T10:25:31;101005.09;;;28.19;100.00
49377;BME280;35253;34.688;33.040;2023-06-01T10:28:02;100997.41;;;28.30;100.00
49377;BME280;35253;34.688;33.040;2023-06-01T10:30:29;100991.75;;;28.38;100.00
49377;BME280;35253;34.688;33.040;2023-06-01T10:32:55;100979.59;;;28.47;100.00
49377;BME280;35253;34.688;33.040;2023-06-01T10:40:41;100961.09;;;28.55;100.00
49377;BME280;35253;34.688;33.040;2023-06-01T10:43:08;100948.31;;;28.41;100.00
49377;BME280;35253;34.688;33.040;2023-06-01T10:45:53;100940.78;;;28.22;100.00
49377;BME280;35253;34.688;33.040;2023-06-01T10:48:51;100937.00;;;28.02;100.00
49377;BME280;35253;34.688;33.040;2023-06-01T10:51:19;100943.41;;;27.88;100.00
49377;BME280;35253;34.688;33.040;2023-06-01T10:53:45;100927.97;;;27.80;100.00
49377;BME280;35253;34.688;33.040;2023-06-01T10:56:27;100914.53;;;27.64;100.00
49377;BME280;35253;34.688;33.040;2023-06-01T10:59:19;100916.91;;;27.73;100.00
49377;BME280;35253;34.688;33.040;2023-06-01T11:01:46;100904.47;;;27.71;100.00
49377;BME280;35253;34.688;33.040;2023-06-01T11:04:12;100892.97;;;27.61;100.00
49377;BME280;35253;34.688;33.040;2023-06-01T11:06:39;100891.75;;;27.63;100.00
49377;BME280;35253;34.688;33.040;2023-06-01T11:09:08;100877.84;;;27.65;100.00
49377;BME280;35253;34.688;33.040;2023-06-01T11:14:22;100860.38;;;27.66;100.00
49377;BME280;35253;34.688;33.040;2023-06-01T11:16:52;100856.31;;;27.83;100.00
49377;BME280;35253;34.688;33.040;2023-06-01T11:19:22;100853.19;;;27.86;100.00
49377;BME280;35253;34.688;33.040;2023-06-01T11:21:56;100846.09;;;27.98;100.00
49377;BME280;35253;34.688;33.040;2023-06-01T11:24:34;100830.50;;;27.99;100.00
49377;BME280;35253;34.688;33.040;2023-06-01T11:27:08;100815.97;;;27.98;100.00
49377;BME280;35253;34.688;33.040;2023-06-01T11:29:34;100815.63;;;27.87;100.00
49377;BME280;35253;34.688;33.040;2023-06-01T11:32:02;100821.16;;;27.65;100.00
49377;BME280;35253;34.688;33.040;2023-06-01T11:34:39;100820.84;;;27.75;100.00
49377;BME280;35253;34.688;33.040;2023-06-01T11:37:16;100812.50;;;27.62;100.00
49377;BME280;35253;34.688;33.040;2023-06-01T11:39:44;100802.47;;;27.48;100.00
49377;BME280;35253;34.688;33.040;2023-06-01T11:42:19;100812.50;;;27.41;100.00
49377;BME280;35253;34.688;33.040;2023-06-01T11:44:55;100829.66;;;27.28;100.00
49377;BME280;35253;34.688;33.040;2023-06-01T11:47:21;100833.88;;;27.30;100.00
49377;BME280;35253;34.688;33.040;2023-06-01T11:49:49;100826.69;;;27.29;100.00
49377;BME280;35253;34.688;33.040;2023-06-01T11:52:16;100831.69;;;27.19;100.00
49377;BME280;35253;34.688;33.040;2023-06-01T11:54:43;100835.25;;;27.20;100.00
49377;BME280;35253;34.688;33.040;2023-06-01T11:57:08;100842.16;;;27.16;100.00
49377;BME280;35253;34.688;33.040;2023-06-01T11:59:40;100850.44;;;27.22;100.00
49377;BME280;35253;34.688;33.040;2023-06-01T12:02:21;100835.91;;;27.22;100.00
49377;BME280;35253;34.688;33.040;2023-06-01T12:05:02;100846.47;;;27.25;100.00
49377;BME280;35253;34.688;33.040;2023-06-01T12:07:51;100815.75;;;27.29;100.00
49377;BME280;35253;34.688;33.040;2023-06-01T12:10:19;100812.09;;;27.44;100.00
49377;BME280;35253;34.688;33.040;2023-06-01T12:12:46;100825.69;;;27.52;100.00
49377;BME280;35253;34.688;33.040;2023-06-01T12:15:17;100821.56;;;27.62;100.00
49377;BME280;35253;34.688;33.040;2023-06-01T12:17:49;100830.34;;;27.79;100.00
49377;BME280;35253;34.688;33.040;2023-06-01T12:20:29;100840.56;;;27.92;100.00
49377;BME280;35253;34.688;33.040;2023-06-01T12:23:22;100847.41;;;28.30;100.00
49377;BME280;35253;34.688;33.040;2023-06-01T12:25:52;100846.72;;;28.56;100.00
49377;BME280;35253;34.688;33.040;2023-06-01T12:28:20;100835.94;;;28.95;100.00
49377;BME280;35253;34.688;33.040;2023-06-01T12:30:47;100845.06;;;29.29;100.00
49377;BME280;35253;34.688;33.040;2023-06-01T12:33:33;100861.91;;;28.99;100.00
49377;BME280;35253;34.688;33.040;2023-06-01T12:36:00;100870.72;;;28.88;100.00
49377;BME280;35253;34.688;33.040;2023-06-01T12:38:26;100871.19;;;28.57;100.00
49377;BME280;35253;34.688;33.040;2023-06-01T12:41:12;100879.94;;;28.40;100.00
49377;BME280;35253;34.688;33.040;2023-06-01T12:43:38;100882.16;;;27.53;100.00
49377;BME280;35253;34.688;33.040;2023-06-01T12:46:17;100867.13;;;27.27;100.00
49377;BME280;35253;34.688;33.040;2023-06-01T12:48:44;100866.22;;;26.40;100.00
49377;BME280;35253;34.688;33.040;2023-06-01T12:51:11;100866.28;;;26.91;100.00
49377;BME280;35253;34.688;33.040;2023-06-01T12:53:36;100869.88;;;27.27;100.00
49377;BME280;35253;34.688;33.040;2023-06-01T12:56:02;100870.16;;;27.32;100.00
49377;BME280;35253;34.688;33.040;2023-06-01T12:58:28;100885.00;;;27.45;100.00
49377;BME280;35253;34.688;33.040;2023-06-01T13:00:54;100899.41;;;26.96;100.00
49377;BME280;35253;34.688;33.040;2023-06-01T13:03:19;100893.97;;;26.00;100.00